createdAt,value
2019-02-17T00:00:38.169Z,7.30
2019-02-17T00:02:12.914Z,7.30
2019-02-17T00:03:47.650Z,7.30
2019-02-17T00:05:22.452Z,7.30
2019-02-17T00:06:57.242Z,7.30
2019-02-17T00:08:32.012Z,7.30
2019-02-17T00:10:06.885Z,7.30
2019-02-17T00:11:41.705Z,7.30
2019-02-17T00:13:16.797Z,7.30
2019-02-17T00:14:51.562Z,7.20
2019-02-17T00:16:26.345Z,7.20
2019-02-17T00:18:01.134Z,7.20
2019-02-17T00:19:35.895Z,7.20
2019-02-17T00:21:10.654Z,7.20
2019-02-17T00:22:45.473Z,7.20
2019-02-17T00:24:20.206Z,7.20
2019-02-17T00:25:55.033Z,7.30
2019-02-17T00:27:29.838Z,7.20
2019-02-17T00:29:04.687Z,7.20
2019-02-17T00:30:39.533Z,7.20
2019-02-17T00:32:14.279Z,7.10
2019-02-17T00:33:49.141Z,7.10
2019-02-17T00:35:23.861Z,7.10
2019-02-17T00:36:58.620Z,7.10
2019-02-17T00:38:33.334Z,7.10
2019-02-17T00:40:08.418Z,7.10
2019-02-17T00:41:43.274Z,7.10
2019-02-17T00:43:18.081Z,7.10
2019-02-17T00:44:52.929Z,7.10
2019-02-17T00:46:27.773Z,7.10
2019-02-17T00:48:02.579Z,7.20
2019-02-17T00:49:37.326Z,7.10
2019-02-17T00:51:12.074Z,7.10
2019-02-17T00:52:46.870Z,7.10
2019-02-17T00:54:21.721Z,7.10
2019-02-17T00:55:56.466Z,7.20
2019-02-17T00:57:31.292Z,7.20
2019-02-17T00:59:10.278Z,7.10
2019-02-17T01:00:42.530Z,7.20
2019-02-17T01:02:17.301Z,7.20
2019-02-17T01:03:52.138Z,7.10
2019-02-17T01:05:26.878Z,7.20
2019-02-17T01:07:01.701Z,7.10
2019-02-17T01:08:36.534Z,7.10
2019-02-17T01:10:11.338Z,7.10
2019-02-17T01:11:46.074Z,7.20
2019-02-17T01:13:20.953Z,7.20
2019-02-17T01:14:55.784Z,7.10
2019-02-17T01:16:30.514Z,7.10
2019-02-17T01:18:05.861Z,7.10
2019-02-17T01:19:40.838Z,7.10
2019-02-17T01:21:15.702Z,7.10
2019-02-17T01:22:50.449Z,7.10
2019-02-17T01:24:25.196Z,7.00
2019-02-17T01:26:00.021Z,7.00
2019-02-17T01:27:34.810Z,7.00
2019-02-17T01:29:19.809Z,7.10
2019-02-17T01:30:46.396Z,6.90
2019-02-17T01:32:21.188Z,6.90
2019-02-17T01:33:56.046Z,6.90
2019-02-17T01:35:30.793Z,6.90
2019-02-17T01:37:05.718Z,6.80
2019-02-17T01:38:40.545Z,6.90
2019-02-17T01:40:15.382Z,6.90
2019-02-17T01:41:50.101Z,6.80
2019-02-17T01:43:25.998Z,6.80
2019-02-17T01:45:00.804Z,6.80
2019-02-17T01:46:38.338Z,6.70
2019-02-17T01:48:12.404Z,6.80
2019-02-17T01:49:47.358Z,6.80
2019-02-17T01:51:22.134Z,6.80
2019-02-17T01:52:56.909Z,6.80
2019-02-17T01:54:31.665Z,6.80
2019-02-17T01:56:06.565Z,6.70
2019-02-17T01:57:41.299Z,6.80
2019-02-17T01:59:16.045Z,6.80
2019-02-17T02:00:50.911Z,6.80
2019-02-17T02:02:25.687Z,6.90
2019-02-17T02:04:00.493Z,6.80
2019-02-17T02:05:35.254Z,6.80
2019-02-17T02:07:10.157Z,6.80
2019-02-17T02:08:44.905Z,6.90
2019-02-17T02:10:19.737Z,6.80
2019-02-17T02:11:54.532Z,6.80
2019-02-17T02:13:29.261Z,6.80
2019-02-17T02:15:04.394Z,6.90
2019-02-17T02:16:39.300Z,6.80
2019-02-17T02:18:14.424Z,6.80
2019-02-17T02:19:49.257Z,6.80
2019-02-17T02:21:24.147Z,6.80
2019-02-17T02:22:58.872Z,6.80
2019-02-17T02:24:33.695Z,6.80
2019-02-17T02:26:08.438Z,6.80
2019-02-17T02:27:43.193Z,6.80
2019-02-17T02:29:17.917Z,6.80
2019-02-17T02:30:52.649Z,6.80
2019-02-17T02:32:27.374Z,6.80
2019-02-17T02:34:02.144Z,6.80
2019-02-17T02:35:36.930Z,6.70
2019-02-17T02:37:12.740Z,6.80
2019-02-17T02:38:47.539Z,6.80
2019-02-17T02:40:22.351Z,6.80
2019-02-17T02:41:57.127Z,6.80
2019-02-17T02:43:31.961Z,6.80
2019-02-17T02:45:07.651Z,6.80
2019-02-17T02:46:42.417Z,6.80
2019-02-17T02:48:17.211Z,6.80
2019-02-17T02:49:51.928Z,6.70
2019-02-17T02:51:26.655Z,6.70
2019-02-17T02:53:01.496Z,6.70
2019-02-17T02:54:36.297Z,6.60
2019-02-17T02:56:11.169Z,6.70
2019-02-17T02:57:46.015Z,6.70
2019-02-17T02:59:20.770Z,6.70
2019-02-17T03:00:55.582Z,6.70
2019-02-17T03:02:31.434Z,6.70
2019-02-17T03:04:06.205Z,6.80
2019-02-17T03:05:49.877Z,6.80
2019-02-17T03:07:24.610Z,6.80
2019-02-17T03:08:59.398Z,6.70
2019-02-17T03:10:34.193Z,6.70
2019-02-17T03:12:08.992Z,6.70
2019-02-17T03:13:43.739Z,6.70
2019-02-17T03:15:18.587Z,6.60
2019-02-17T03:16:53.478Z,6.60
2019-02-17T03:18:28.226Z,6.60
2019-02-17T03:20:03.188Z,6.60
2019-02-17T03:21:38.073Z,6.60
2019-02-17T03:23:12.853Z,6.60
2019-02-17T03:24:47.666Z,6.60
2019-02-17T03:26:22.409Z,6.50
2019-02-17T03:27:57.171Z,6.50
2019-02-17T03:29:32.133Z,6.50
2019-02-17T03:31:06.923Z,6.40
2019-02-17T03:32:41.739Z,6.40
2019-02-17T03:34:16.516Z,6.30
2019-02-17T03:35:51.235Z,6.40
2019-02-17T03:37:25.975Z,6.30
2019-02-17T03:39:00.726Z,6.30
2019-02-17T03:40:36.100Z,6.20
2019-02-17T03:42:10.825Z,6.30
2019-02-17T03:43:45.723Z,6.30
2019-02-17T03:45:20.586Z,6.30
2019-02-17T03:46:55.385Z,6.20
2019-02-17T03:48:30.146Z,6.10
2019-02-17T03:50:05.686Z,6.10
2019-02-17T03:51:40.468Z,6.10
2019-02-17T03:53:15.358Z,6.10
2019-02-17T03:54:50.157Z,6.10
2019-02-17T03:56:24.928Z,6.20
2019-02-17T03:57:59.679Z,6.20
2019-02-17T03:59:34.430Z,6.30
2019-02-17T04:01:09.314Z,6.30
2019-02-17T04:02:45.980Z,6.30
2019-02-17T04:04:22.043Z,6.40
2019-02-17T04:05:56.766Z,6.40
2019-02-17T04:07:31.894Z,6.30
2019-02-17T04:09:08.513Z,6.30
2019-02-17T04:10:43.363Z,6.30
2019-02-17T04:12:18.226Z,6.30
2019-02-17T04:13:52.986Z,6.20
2019-02-17T04:15:27.778Z,6.30
2019-02-17T04:17:02.527Z,6.30
2019-02-17T04:18:37.345Z,6.30
2019-02-17T04:20:12.214Z,6.30
2019-02-17T04:21:46.951Z,6.30
2019-02-17T04:23:30.851Z,6.30
2019-02-17T04:24:58.180Z,6.30
2019-02-17T04:26:32.967Z,6.30
2019-02-17T04:28:07.712Z,6.30
2019-02-17T04:29:42.453Z,6.30
2019-02-17T04:31:17.222Z,6.30
2019-02-17T04:32:52.057Z,6.30
2019-02-17T04:34:26.796Z,6.30
2019-02-17T04:36:02.082Z,6.30
2019-02-17T04:37:36.967Z,6.30
2019-02-17T04:39:11.687Z,6.30
2019-02-17T04:40:46.526Z,6.20
2019-02-17T04:42:21.266Z,6.30
2019-02-17T04:43:56.036Z,6.30
2019-02-17T04:45:30.867Z,6.30
2019-02-17T04:47:05.682Z,6.20
2019-02-17T04:48:40.535Z,6.20
2019-02-17T04:50:15.334Z,6.20
2019-02-17T04:51:50.283Z,6.20
2019-02-17T04:53:25.063Z,6.20
2019-02-17T04:54:59.803Z,6.30
2019-02-17T04:56:34.685Z,6.20
2019-02-17T04:58:09.429Z,6.20
2019-02-17T04:59:44.192Z,6.20
2019-02-17T05:01:18.989Z,6.20
2019-02-17T05:02:53.749Z,6.20
2019-02-17T05:04:28.571Z,6.20
2019-02-17T05:06:03.299Z,6.10
2019-02-17T05:07:38.182Z,6.00
2019-02-17T05:09:12.930Z,6.00
2019-02-17T05:10:47.818Z,6.10
2019-02-17T05:12:24.171Z,6.10
2019-02-17T05:13:59.649Z,6.10
2019-02-17T05:15:34.375Z,6.10
2019-02-17T05:17:09.138Z,6.00
2019-02-17T05:18:43.879Z,6.00
2019-02-17T05:20:18.828Z,6.10
2019-02-17T05:21:53.736Z,6.10
2019-02-17T05:23:28.457Z,6.00
2019-02-17T05:25:03.295Z,6.00
2019-02-17T05:26:38.113Z,6.00
2019-02-17T05:28:12.958Z,5.90
2019-02-17T05:29:47.846Z,5.90
2019-02-17T05:31:22.570Z,5.90
2019-02-17T05:32:57.313Z,5.90
2019-02-17T05:34:32.038Z,5.90
2019-02-17T05:36:06.787Z,5.90
2019-02-17T05:37:41.594Z,5.90
2019-02-17T05:39:16.735Z,5.90
2019-02-17T05:40:51.542Z,5.90
2019-02-17T05:42:26.398Z,5.90
2019-02-17T05:44:01.121Z,5.90
2019-02-17T05:45:35.891Z,5.90
2019-02-17T05:47:10.684Z,5.90
2019-02-17T05:48:45.437Z,5.90
2019-02-17T05:50:20.246Z,5.90
2019-02-17T05:51:54.962Z,5.80
2019-02-17T05:53:29.753Z,5.80
2019-02-17T05:55:04.881Z,5.90
2019-02-17T05:56:39.729Z,5.90
2019-02-17T05:58:14.578Z,5.90
2019-02-17T05:59:49.294Z,5.90
2019-02-17T06:01:24.046Z,5.90
2019-02-17T06:02:58.865Z,5.90
2019-02-17T06:04:33.793Z,5.80
2019-02-17T06:06:08.549Z,5.90
2019-02-17T06:07:43.378Z,5.90
2019-02-17T06:09:18.146Z,5.90
2019-02-17T06:10:52.915Z,5.90
2019-02-17T06:12:27.770Z,5.90
2019-02-17T06:14:02.674Z,5.90
2019-02-17T06:15:37.414Z,5.80
2019-02-17T06:17:12.239Z,5.80
2019-02-17T06:18:47.038Z,5.80
2019-02-17T06:20:23.030Z,5.90
2019-02-17T06:21:57.830Z,6.00
2019-02-17T06:23:33.721Z,6.00
2019-02-17T06:25:08.946Z,6.00
2019-02-17T06:26:43.705Z,5.90
2019-02-17T06:28:18.458Z,5.90
2019-02-17T06:29:53.290Z,5.90
2019-02-17T06:31:28.096Z,5.90
2019-02-17T06:33:02.987Z,5.90
2019-02-17T06:34:37.818Z,6.00
2019-02-17T06:36:12.565Z,6.00
2019-02-17T06:37:47.309Z,6.00
2019-02-17T06:39:22.068Z,6.00
2019-02-17T06:40:56.893Z,6.00
2019-02-17T06:42:31.615Z,6.00
2019-02-17T06:44:07.545Z,6.00
2019-02-17T06:45:42.308Z,6.00
2019-02-17T06:47:20.961Z,6.00
2019-02-17T06:48:55.757Z,6.00
2019-02-17T06:50:32.730Z,6.10
2019-02-17T06:52:07.086Z,6.10
2019-02-17T06:53:41.849Z,6.00
2019-02-17T06:55:26.134Z,6.00
2019-02-17T06:57:10.487Z,6.00
2019-02-17T06:58:45.321Z,6.10
2019-02-17T07:00:32.620Z,6.10
2019-02-17T07:02:07.415Z,6.00
2019-02-17T07:03:42.228Z,6.10
2019-02-17T07:05:34.865Z,6.10
2019-02-17T07:07:11.606Z,6.10
2019-02-17T07:08:46.386Z,6.10
2019-02-17T07:10:21.183Z,6.20
2019-02-17T07:11:56.827Z,6.20
2019-02-17T07:13:31.853Z,6.30
2019-02-17T07:15:06.829Z,6.30
2019-02-17T07:16:44.913Z,6.40
2019-02-17T07:18:19.621Z,6.50
2019-02-17T07:19:54.373Z,6.50
2019-02-17T07:21:30.178Z,6.60
2019-02-17T07:23:04.919Z,6.50
2019-02-17T07:24:39.713Z,6.60
2019-02-17T07:26:17.044Z,6.70
2019-02-17T07:27:51.093Z,6.80
2019-02-17T07:29:25.910Z,6.80
2019-02-17T07:31:00.685Z,6.80
2019-02-17T07:32:35.438Z,6.80
2019-02-17T07:34:10.175Z,6.80
2019-02-17T07:35:44.977Z,6.70
2019-02-17T07:37:19.698Z,6.80
2019-02-17T07:38:54.440Z,6.90
2019-02-17T07:40:29.297Z,6.90
2019-02-17T07:42:04.202Z,7.10
2019-02-17T07:43:38.934Z,6.90
2019-02-17T07:45:13.735Z,6.90
2019-02-17T07:46:49.426Z,7.00
2019-02-17T07:48:24.170Z,7.10
2019-02-17T07:49:58.958Z,7.10
2019-02-17T07:51:33.778Z,7.20
2019-02-17T07:53:08.570Z,7.30
2019-02-17T07:54:43.311Z,7.40
2019-02-17T07:56:18.181Z,7.20
2019-02-17T07:57:52.950Z,7.30
2019-02-17T07:59:28.705Z,7.20
2019-02-17T08:01:03.578Z,7.30
2019-02-17T08:02:38.679Z,7.40
2019-02-17T08:04:13.416Z,7.60
2019-02-17T08:05:48.171Z,7.60
2019-02-17T08:07:23.066Z,7.80
2019-02-17T08:08:57.911Z,7.90
2019-02-17T08:10:32.798Z,7.90
2019-02-17T08:12:07.592Z,7.90
2019-02-17T08:13:42.326Z,8.00
2019-02-17T08:15:17.133Z,8.10
2019-02-17T08:16:51.873Z,8.20
2019-02-17T08:18:26.624Z,8.30
2019-02-17T08:20:01.757Z,8.30
2019-02-17T08:21:36.564Z,8.40
2019-02-17T08:23:11.290Z,8.50
2019-02-17T08:24:46.018Z,8.70
2019-02-17T08:26:20.925Z,8.80
2019-02-17T08:27:55.761Z,8.80
2019-02-17T08:29:30.546Z,9.10
2019-02-17T08:31:05.274Z,9.30
2019-02-17T08:32:40.093Z,9.30
2019-02-17T08:34:14.836Z,9.50
2019-02-17T08:35:49.561Z,9.60
2019-02-17T08:37:24.445Z,9.50
2019-02-17T08:38:59.449Z,9.50
2019-02-17T08:40:34.253Z,9.40
2019-02-17T08:42:09.056Z,9.40
2019-02-17T08:43:43.880Z,9.50
2019-02-17T08:45:18.634Z,9.50
2019-02-17T08:46:53.423Z,9.30
2019-02-17T08:48:28.261Z,9.30
2019-02-17T08:50:03.198Z,9.40
2019-02-17T08:51:38.032Z,9.50
2019-02-17T08:53:12.818Z,9.60
2019-02-17T08:54:47.567Z,9.70
2019-02-17T08:56:22.293Z,9.60
2019-02-17T08:57:57.021Z,9.70
2019-02-17T08:59:32.104Z,9.70
2019-02-17T09:01:06.985Z,9.70
2019-02-17T09:02:41.869Z,9.80
2019-02-17T09:04:16.614Z,9.90
2019-02-17T09:05:51.706Z,9.80
2019-02-17T09:07:26.510Z,9.80
2019-02-17T09:09:01.477Z,9.80
2019-02-17T09:10:36.794Z,9.80
2019-02-17T09:12:11.664Z,9.70
2019-02-17T09:13:46.390Z,9.70
2019-02-17T09:15:21.153Z,9.90
2019-02-17T09:16:55.904Z,10.00
2019-02-17T09:18:30.639Z,9.80
2019-02-17T09:20:07.960Z,9.80
2019-02-17T09:21:42.589Z,10.10
2019-02-17T09:23:17.401Z,10.20
2019-02-17T09:24:52.279Z,10.50
2019-02-17T09:26:27.022Z,10.80
2019-02-17T09:28:01.756Z,11.20
2019-02-17T09:29:36.946Z,11.60
2019-02-17T09:31:11.760Z,12.00
2019-02-17T09:32:46.490Z,12.30
2019-02-17T09:34:21.333Z,12.60
2019-02-17T09:35:56.173Z,12.80
2019-02-17T09:37:30.932Z,13.10
2019-02-17T09:39:08.863Z,13.30
2019-02-17T09:40:43.741Z,13.30
2019-02-17T09:42:18.550Z,13.30
2019-02-17T09:43:53.403Z,13.60
2019-02-17T09:45:28.198Z,13.70
2019-02-17T09:47:03.030Z,13.90
2019-02-17T09:48:37.854Z,13.90
2019-02-17T09:50:12.957Z,14.10
2019-02-17T09:51:48.015Z,14.40
2019-02-17T09:53:22.890Z,14.50
2019-02-17T09:54:57.629Z,14.40
2019-02-17T09:56:32.412Z,14.60
2019-02-17T09:58:07.201Z,14.30
2019-02-17T09:59:42.258Z,14.60
2019-02-17T10:01:17.069Z,14.80
2019-02-17T10:02:51.890Z,15.30
2019-02-17T10:04:26.707Z,15.40
2019-02-17T10:06:01.435Z,15.30
2019-02-17T10:07:36.238Z,15.50
2019-02-17T10:09:11.106Z,15.30
2019-02-17T10:10:45.836Z,15.40
2019-02-17T10:12:20.690Z,15.30
2019-02-17T10:13:55.430Z,15.30
2019-02-17T10:15:30.225Z,15.50
2019-02-17T10:17:05.361Z,15.80
2019-02-17T10:18:40.116Z,15.70
2019-02-17T10:20:15.014Z,15.90
2019-02-17T10:21:49.754Z,15.30
2019-02-17T10:23:24.553Z,15.50
2019-02-17T10:24:59.510Z,15.90
2019-02-17T10:26:35.258Z,15.90
2019-02-17T10:28:10.006Z,16.20
2019-02-17T10:29:44.883Z,16.30
2019-02-17T10:31:19.775Z,16.40
2019-02-17T10:32:54.506Z,16.50
2019-02-17T10:34:29.274Z,16.30
2019-02-17T10:36:04.254Z,16.50
2019-02-17T10:37:38.990Z,16.30
2019-02-17T10:39:13.799Z,16.50
2019-02-17T10:40:48.554Z,16.30
2019-02-17T10:42:23.270Z,16.40
2019-02-17T10:43:58.101Z,16.40
2019-02-17T10:45:52.245Z,16.60
2019-02-17T10:47:26.970Z,16.30
2019-02-17T10:49:01.770Z,16.30
2019-02-17T10:50:36.529Z,16.00
2019-02-17T10:52:11.334Z,16.10
2019-02-17T10:53:46.146Z,15.90
2019-02-17T10:55:20.878Z,15.90
2019-02-17T10:56:55.634Z,15.80
2019-02-17T10:58:30.445Z,15.90
2019-02-17T11:00:07.912Z,15.90
2019-02-17T11:01:59.093Z,15.70
2019-02-17T11:03:33.834Z,15.50
2019-02-17T11:05:09.810Z,15.20
2019-02-17T11:06:44.613Z,15.00
2019-02-17T11:08:19.558Z,14.70
2019-02-17T11:09:54.350Z,14.90
2019-02-17T11:11:29.402Z,15.10
2019-02-17T11:13:04.372Z,14.90
2019-02-17T11:14:40.434Z,14.90
2019-02-17T11:16:15.140Z,14.80
2019-02-17T11:17:50.064Z,14.70
2019-02-17T11:19:24.852Z,14.60
2019-02-17T11:20:59.577Z,14.50
2019-02-17T11:22:36.513Z,14.60
2019-02-17T11:24:11.335Z,14.60
2019-02-17T11:25:46.158Z,14.60
2019-02-17T11:30:01.981Z,14.60
2019-02-17T11:31:36.800Z,14.50
2019-02-17T11:33:11.597Z,14.50
2019-02-17T11:34:48.275Z,14.50
2019-02-17T11:36:23.286Z,14.50
2019-02-17T11:37:58.177Z,14.50
2019-02-17T11:39:32.990Z,14.50
2019-02-17T11:41:07.763Z,14.40
2019-02-17T11:42:42.645Z,14.50
2019-02-17T11:44:17.550Z,14.50
2019-02-17T11:45:52.421Z,14.50
2019-02-17T11:47:27.178Z,14.50
2019-02-17T11:49:01.981Z,14.50
2019-02-17T11:50:36.758Z,14.40
2019-02-17T11:52:11.581Z,14.30
2019-02-17T11:53:46.546Z,14.30
2019-02-17T11:55:22.818Z,14.20
2019-02-17T11:56:57.794Z,14.20
2019-02-17T11:58:32.525Z,14.10
2019-02-17T12:00:13.703Z,14.20
2019-02-17T12:01:48.426Z,14.00
2019-02-17T12:03:23.167Z,14.00
2019-02-17T12:04:57.909Z,14.10
2019-02-17T12:06:32.785Z,14.00
2019-02-17T12:08:07.511Z,13.90
2019-02-17T12:09:42.245Z,13.80
2019-02-17T12:11:17.049Z,13.80
2019-02-17T12:12:51.870Z,13.80
2019-02-17T12:14:32.847Z,13.80
2019-02-17T12:16:07.630Z,13.70
2019-02-17T12:17:43.426Z,13.80
2019-02-17T12:19:18.130Z,13.90
2019-02-17T12:21:05.048Z,13.90
2019-02-17T12:22:45.242Z,13.90
2019-02-17T12:24:22.612Z,13.90
2019-02-17T12:26:06.964Z,13.80
2019-02-17T12:28:02.982Z,13.90
2019-02-17T12:29:43.645Z,13.90
2019-02-17T12:31:23.348Z,13.80
2019-02-17T12:32:58.178Z,13.90
2019-02-17T12:34:32.905Z,13.80
2019-02-17T12:36:07.688Z,13.80
2019-02-17T12:37:42.430Z,13.80
2019-02-17T12:39:17.184Z,13.80
2019-02-17T12:40:51.931Z,13.80
2019-02-17T12:42:26.754Z,13.80
2019-02-17T12:44:01.690Z,13.80
2019-02-17T12:45:36.622Z,13.80
2019-02-17T12:47:12.759Z,13.90
2019-02-17T12:48:48.478Z,13.90
2019-02-17T12:50:24.117Z,13.80
2019-02-17T12:51:58.887Z,13.90
2019-02-17T12:53:33.611Z,14.00
2019-02-17T12:55:08.575Z,14.00
2019-02-17T12:56:43.389Z,13.90
2019-02-17T12:58:20.131Z,13.90
2019-02-17T12:59:54.625Z,14.00
2019-02-17T13:01:29.474Z,14.00
2019-02-17T13:03:04.346Z,14.00
2019-02-17T13:04:39.229Z,14.00
2019-02-17T13:06:13.993Z,14.00
2019-02-17T13:07:48.761Z,14.00
2019-02-17T13:09:23.558Z,14.10
2019-02-17T13:10:58.609Z,14.10
2019-02-17T13:12:33.397Z,14.20
2019-02-17T13:14:08.317Z,14.20
2019-02-17T13:15:43.150Z,14.20
2019-02-17T13:17:17.941Z,14.30
2019-02-17T13:18:52.870Z,14.30
2019-02-17T13:20:27.667Z,14.30
2019-02-17T13:22:02.511Z,14.20
2019-02-17T13:23:37.313Z,14.20
2019-02-17T13:25:12.398Z,14.30
2019-02-17T13:26:47.299Z,14.30
2019-02-17T13:28:22.030Z,14.30
2019-02-17T13:29:56.773Z,14.30
2019-02-17T13:31:31.565Z,14.30
2019-02-17T13:33:06.301Z,14.30
2019-02-17T13:34:41.033Z,14.30
2019-02-17T13:36:15.921Z,14.30
2019-02-17T13:37:50.726Z,14.30
2019-02-17T13:39:25.515Z,14.30
2019-02-17T13:41:00.325Z,14.30
2019-02-17T13:42:35.033Z,14.40
2019-02-17T13:44:09.755Z,14.40
2019-02-17T13:45:44.951Z,14.40
2019-02-17T13:47:19.829Z,14.40
2019-02-17T13:48:54.700Z,14.50
2019-02-17T13:50:29.578Z,14.40
2019-02-17T13:52:04.317Z,14.40
2019-02-17T13:53:39.081Z,14.40
2019-02-17T13:55:14.033Z,14.40
2019-02-17T13:56:48.865Z,14.40
2019-02-17T13:58:23.612Z,14.40
2019-02-17T13:59:58.439Z,14.40
2019-02-17T14:01:33.233Z,14.50
2019-02-17T14:03:08.282Z,14.50
2019-02-17T14:04:43.125Z,14.50
2019-02-17T14:06:18.042Z,14.50
2019-02-17T14:07:52.787Z,14.50
2019-02-17T14:09:27.514Z,14.40
2019-02-17T14:11:02.323Z,14.40
2019-02-17T14:12:37.105Z,14.40
2019-02-17T14:14:11.817Z,14.40
2019-02-17T14:15:46.610Z,14.40
2019-02-17T14:17:21.373Z,14.40
2019-02-17T14:18:58.832Z,14.40
2019-02-17T14:20:33.579Z,14.40
2019-02-17T14:22:08.326Z,14.40
2019-02-17T14:23:43.122Z,14.40
2019-02-17T14:25:17.866Z,14.40
2019-02-17T14:26:52.686Z,14.40
2019-02-17T14:28:27.413Z,14.30
2019-02-17T14:30:02.266Z,14.40
2019-02-17T14:31:37.985Z,14.40
2019-02-17T14:33:12.798Z,14.40
2019-02-17T14:34:47.806Z,14.40
2019-02-17T14:36:22.542Z,14.40
2019-02-17T14:37:57.387Z,14.40
2019-02-17T14:39:32.097Z,14.40
2019-02-17T14:41:08.018Z,14.40
2019-02-17T14:42:42.750Z,14.40
2019-02-17T14:44:17.473Z,14.40
2019-02-17T14:45:52.310Z,14.40
2019-02-17T14:47:27.126Z,14.40
2019-02-17T14:49:02.517Z,14.40
2019-02-17T14:50:37.472Z,14.40
2019-02-17T14:52:12.306Z,14.40
2019-02-17T14:53:47.038Z,14.40
2019-02-17T14:55:21.785Z,14.40
2019-02-17T14:56:56.583Z,14.40
2019-02-17T14:58:31.302Z,14.40
2019-02-17T15:00:06.623Z,14.30
2019-02-17T15:01:41.501Z,14.30
2019-02-17T15:03:16.217Z,14.30
2019-02-17T15:04:50.938Z,14.30
2019-02-17T15:06:25.766Z,14.30
2019-02-17T15:08:00.584Z,14.30
2019-02-17T15:09:35.310Z,14.30
2019-02-17T15:11:10.051Z,14.30
2019-02-17T15:12:44.871Z,14.30
2019-02-17T15:14:19.602Z,14.30
2019-02-17T15:15:54.375Z,14.20
2019-02-17T15:17:30.118Z,14.20
2019-02-17T15:19:04.903Z,14.20
2019-02-17T15:20:39.646Z,14.10
2019-02-17T15:22:14.402Z,14.10
2019-02-17T15:23:49.123Z,14.20
2019-02-17T15:25:23.964Z,14.10
2019-02-17T15:26:58.729Z,14.10
2019-02-17T15:28:33.576Z,14.10
2019-02-17T15:30:10.482Z,14.00
2019-02-17T15:31:46.356Z,14.00
2019-02-17T15:33:21.170Z,14.00
2019-02-17T15:34:55.941Z,13.90
2019-02-17T15:36:30.717Z,13.90
2019-02-17T15:38:05.560Z,13.90
2019-02-17T15:39:40.358Z,13.80
2019-02-17T15:41:15.112Z,13.80
2019-02-17T15:42:50.902Z,13.70
2019-02-17T15:44:26.606Z,13.70
2019-02-17T15:46:01.325Z,13.70
2019-02-17T15:47:36.473Z,13.60
2019-02-17T15:49:11.217Z,13.60
2019-02-17T15:50:45.987Z,13.60
2019-02-17T15:52:20.793Z,13.50
2019-02-17T15:53:55.585Z,13.50
2019-02-17T15:55:30.392Z,13.50
2019-02-17T15:57:05.185Z,13.50
2019-02-17T15:58:39.914Z,13.40
2019-02-17T16:00:14.781Z,13.40
2019-02-17T16:01:49.582Z,13.40
2019-02-17T16:03:24.427Z,13.30
2019-02-17T16:04:59.317Z,13.30
2019-02-17T16:06:34.061Z,13.20
2019-02-17T16:08:08.871Z,13.20
2019-02-17T16:09:43.609Z,13.10
2019-02-17T16:11:18.414Z,13.10
2019-02-17T16:12:53.280Z,13.10
2019-02-17T16:14:28.047Z,13.10
2019-02-17T16:16:02.763Z,13.10
2019-02-17T16:17:37.465Z,13.00
2019-02-17T16:19:12.231Z,12.90
2019-02-17T16:20:47.042Z,12.90
2019-02-17T16:22:21.745Z,12.80
2019-02-17T16:23:56.502Z,12.80
2019-02-17T16:25:31.246Z,12.80
2019-02-17T16:27:05.969Z,12.80
2019-02-17T16:28:40.701Z,12.70
2019-02-17T16:30:15.972Z,12.70
2019-02-17T16:31:50.866Z,12.60
2019-02-17T16:33:25.666Z,12.60
2019-02-17T16:35:00.389Z,12.50
2019-02-17T16:36:35.158Z,12.50
2019-02-17T16:38:09.921Z,12.40
2019-02-17T16:39:44.804Z,12.40
2019-02-17T16:41:19.562Z,12.40
2019-02-17T16:42:54.294Z,12.40
2019-02-17T16:44:29.014Z,12.40
2019-02-17T16:46:03.758Z,12.30
2019-02-17T16:47:38.656Z,12.30
2019-02-17T16:49:13.422Z,12.30
2019-02-17T16:50:48.202Z,12.30
2019-02-17T16:52:22.946Z,12.20
2019-02-17T16:53:57.777Z,12.20
2019-02-17T16:55:32.662Z,12.10
2019-02-17T16:57:07.392Z,12.10
2019-02-17T16:58:42.215Z,12.00
2019-02-17T17:00:22.588Z,12.00
2019-02-17T17:01:58.349Z,12.00
2019-02-17T17:03:33.157Z,11.90
2019-02-17T17:05:09.110Z,11.90
2019-02-17T17:06:43.905Z,11.80
2019-02-17T17:08:18.794Z,11.80
2019-02-17T17:09:53.509Z,11.70
2019-02-17T17:11:28.263Z,11.60
2019-02-17T17:13:03.021Z,11.60
2019-02-17T17:14:37.806Z,11.60
2019-02-17T17:16:12.582Z,11.50
2019-02-17T17:17:47.366Z,11.50
2019-02-17T17:19:22.154Z,11.50
2019-02-17T17:20:56.887Z,11.50
2019-02-17T17:22:31.622Z,11.40
2019-02-17T17:24:06.439Z,11.40
2019-02-17T17:25:41.277Z,11.40
2019-02-17T17:27:23.058Z,11.40
2019-02-17T17:28:57.785Z,11.30
2019-02-17T17:30:32.566Z,11.30
2019-02-17T17:32:07.305Z,11.30
2019-02-17T17:33:42.046Z,11.20
2019-02-17T17:35:16.787Z,11.20
2019-02-17T17:36:51.675Z,11.10
2019-02-17T17:38:26.642Z,11.10
2019-02-17T17:40:01.354Z,11.00
2019-02-17T17:41:36.065Z,10.90
2019-02-17T17:43:10.860Z,10.90
2019-02-17T17:44:45.782Z,10.80
2019-02-17T17:46:20.517Z,10.90
2019-02-17T17:47:55.288Z,10.80
2019-02-17T17:49:30.118Z,10.80
2019-02-17T17:51:05.002Z,10.70
2019-02-17T17:52:39.836Z,10.70
2019-02-17T17:54:14.637Z,10.60
2019-02-17T17:55:49.394Z,10.70
2019-02-17T17:57:24.097Z,10.60
2019-02-17T17:58:58.890Z,10.50
2019-02-17T18:00:34.543Z,10.60
2019-02-17T18:02:09.313Z,10.50
2019-02-17T18:03:44.079Z,10.50
2019-02-17T18:05:18.822Z,10.60
2019-02-17T18:06:53.550Z,10.50
2019-02-17T18:08:28.345Z,10.50
2019-02-17T18:10:03.075Z,10.60
2019-02-17T18:11:38.890Z,10.60
2019-02-17T18:13:13.726Z,10.60
2019-02-17T18:14:48.465Z,10.60
2019-02-17T18:16:23.202Z,10.70
2019-02-17T18:17:57.931Z,10.70
2019-02-17T18:19:32.769Z,10.70
2019-02-17T18:21:07.498Z,10.80
2019-02-17T18:22:42.415Z,10.80
2019-02-17T18:24:17.140Z,10.80
2019-02-17T18:25:51.994Z,10.80
2019-02-17T18:27:26.955Z,10.80
2019-02-17T18:29:01.753Z,10.70
2019-02-17T18:30:37.970Z,10.70
2019-02-17T18:32:12.690Z,10.70
2019-02-17T18:33:47.537Z,10.60
2019-02-17T18:35:22.263Z,10.60
2019-02-17T18:36:56.985Z,10.60
2019-02-17T18:38:31.847Z,10.60
2019-02-17T18:40:07.149Z,10.70
2019-02-17T18:41:42.529Z,10.60
2019-02-17T18:43:17.325Z,10.70
2019-02-17T18:44:52.070Z,10.70
2019-02-17T18:46:26.778Z,10.70
2019-02-17T18:48:01.603Z,10.60
2019-02-17T18:49:36.459Z,10.60
2019-02-17T18:51:11.201Z,10.50
2019-02-17T18:52:46.017Z,10.50
2019-02-17T18:54:21.726Z,10.40
2019-02-17T18:55:56.517Z,10.40
2019-02-17T18:57:32.209Z,10.50
2019-02-17T18:59:06.950Z,10.50
2019-02-17T19:00:41.775Z,10.50
2019-02-17T19:02:16.571Z,10.40
2019-02-17T19:03:51.550Z,10.30
2019-02-17T19:05:31.947Z,10.30
2019-02-17T19:07:02.776Z,10.30
2019-02-17T19:08:37.586Z,10.30
2019-02-17T19:10:12.769Z,10.30
2019-02-17T19:11:47.645Z,10.40
2019-02-17T19:13:22.403Z,10.40
2019-02-17T19:14:57.121Z,10.40
2019-02-17T19:16:31.854Z,10.40
2019-02-17T19:18:06.669Z,10.40
2019-02-17T19:19:41.510Z,10.40
2019-02-17T19:21:16.230Z,10.40
2019-02-17T19:22:50.954Z,10.40
2019-02-17T19:24:25.802Z,10.40
2019-02-17T19:26:00.628Z,10.40
2019-02-17T19:27:35.434Z,10.40
2019-02-17T19:29:10.178Z,10.40
2019-02-17T19:30:44.911Z,10.40
2019-02-17T19:32:19.637Z,10.40
2019-02-17T19:33:54.388Z,10.40
2019-02-17T19:35:30.170Z,10.30
2019-02-17T19:37:05.074Z,10.30
2019-02-17T19:38:39.871Z,10.30
2019-02-17T19:40:14.775Z,10.30
2019-02-17T19:41:49.506Z,10.20
2019-02-17T19:43:24.233Z,10.20
2019-02-17T19:44:58.974Z,10.20
2019-02-17T19:46:33.809Z,10.20
2019-02-17T19:48:08.597Z,10.20
2019-02-17T19:49:43.310Z,10.20
2019-02-17T19:51:18.102Z,10.20
2019-02-17T19:52:52.918Z,10.20
2019-02-17T19:54:27.622Z,10.10
2019-02-17T19:56:02.409Z,10.10
2019-02-17T19:57:37.130Z,10.10
2019-02-17T19:59:11.977Z,10.00
2019-02-17T20:00:46.857Z,10.00
2019-02-17T20:02:33.042Z,10.00
2019-02-17T20:04:19.510Z,10.10
2019-02-17T20:06:01.517Z,10.10
2019-02-17T20:07:36.318Z,10.10
2019-02-17T20:09:18.330Z,10.10
2019-02-17T20:10:53.060Z,10.10
2019-02-17T20:12:27.777Z,10.00
2019-02-17T20:14:02.494Z,10.00
2019-02-17T20:15:37.253Z,10.00
2019-02-17T20:17:12.114Z,10.00
2019-02-17T20:18:46.822Z,10.00
2019-02-17T20:20:21.640Z,10.00
2019-02-17T20:21:56.445Z,9.90
2019-02-17T20:23:31.239Z,9.90
2019-02-17T20:25:06.177Z,9.90
2019-02-17T20:26:40.957Z,9.90
2019-02-17T20:28:15.678Z,9.90
2019-02-17T20:29:50.458Z,9.90
2019-02-17T20:31:25.219Z,9.90
2019-02-17T20:33:00.020Z,9.80
2019-02-17T20:34:34.734Z,9.80
2019-02-17T20:36:09.469Z,9.70
2019-02-17T20:37:44.219Z,9.70
2019-02-17T20:39:19.038Z,9.80
2019-02-17T20:40:53.780Z,9.70
2019-02-17T20:42:28.561Z,9.70
2019-02-17T20:44:03.370Z,9.70
2019-02-17T20:45:38.223Z,9.80
2019-02-17T20:47:12.942Z,9.70